createdAt,value
2019-04-07T00:01:57.547Z,94.90
2019-04-07T00:04:27.091Z,95.00
2019-04-07T00:06:56.098Z,95.00
2019-04-07T00:09:24.696Z,95.00
2019-04-07T00:11:53.625Z,95.00
2019-04-07T00:14:22.281Z,95.10
2019-04-07T00:16:50.972Z,95.20
2019-04-07T00:19:19.617Z,95.30
2019-04-07T00:21:48.291Z,95.30
2019-04-07T00:24:16.935Z,95.30
2019-04-07T00:26:45.532Z,95.40
2019-04-07T00:29:14.448Z,95.50
2019-04-07T00:31:43.250Z,95.50
2019-04-07T00:34:11.983Z,95.50
2019-04-07T00:36:40.584Z,95.60
2019-04-07T00:39:09.479Z,95.70
2019-04-07T00:41:38.721Z,95.70
2019-04-07T00:44:07.728Z,95.70
2019-04-07T00:46:36.542Z,95.60
2019-04-07T00:49:05.714Z,95.60
2019-04-07T00:51:34.424Z,95.70
2019-04-07T00:54:03.159Z,96.20
2019-04-07T00:56:31.751Z,95.80
2019-04-07T00:59:01.076Z,95.80
2019-04-07T01:01:29.685Z,95.90
2019-04-07T01:03:58.421Z,96.00
2019-04-07T01:06:27.256Z,96.10
2019-04-07T01:08:55.870Z,96.10
2019-04-07T01:11:24.506Z,96.10
2019-04-07T01:13:53.093Z,96.20
2019-04-07T01:16:22.061Z,95.90
2019-04-07T01:18:51.330Z,96.30
2019-04-07T01:21:20.709Z,96.50
2019-04-07T01:23:49.297Z,96.40
2019-04-07T01:26:18.499Z,96.50
2019-04-07T01:28:47.138Z,96.50
2019-04-07T01:31:15.756Z,96.60
2019-04-07T01:33:44.385Z,96.50
2019-04-07T01:36:13.597Z,96.50
2019-04-07T01:38:42.290Z,96.60
2019-04-07T01:41:12.831Z,96.60
2019-04-07T01:43:49.334Z,96.70
2019-04-07T01:46:19.681Z,96.90
2019-04-07T01:49:02.192Z,96.60
2019-04-07T01:51:48.794Z,96.80
2019-04-07T01:54:22.088Z,96.60
2019-04-07T01:56:58.343Z,96.60
2019-04-07T01:59:47.553Z,96.70
2019-04-07T02:02:23.706Z,96.80
2019-04-07T02:05:06.717Z,96.80
2019-04-07T02:07:37.520Z,96.70
2019-04-07T02:10:08.862Z,96.70
2019-04-07T02:12:39.113Z,96.70
2019-04-07T02:15:10.547Z,96.70
2019-04-07T02:17:41.599Z,97.00
2019-04-07T02:20:31.278Z,96.60
2019-04-07T02:23:02.009Z,96.60
2019-04-07T02:25:41.592Z,96.60
2019-04-07T02:28:21.789Z,96.60
2019-04-07T02:31:07.924Z,96.50
2019-04-07T02:33:44.164Z,96.50
2019-04-07T02:36:25.738Z,96.50
2019-04-07T02:38:58.676Z,96.50
2019-04-07T02:41:32.506Z,96.60
2019-04-07T02:44:05.579Z,96.50
2019-04-07T02:46:36.611Z,96.60
2019-04-07T02:49:13.154Z,96.50
2019-04-07T02:51:43.577Z,96.50
2019-04-07T02:54:30.309Z,96.60
2019-04-07T02:57:07.915Z,96.50
2019-04-07T03:02:33.548Z,96.60
2019-04-07T03:05:13.804Z,96.50
2019-04-07T03:07:44.517Z,96.60
2019-04-07T03:10:15.906Z,96.60
2019-04-07T03:12:58.782Z,96.60
2019-04-07T03:15:32.482Z,96.50
2019-04-07T03:18:12.604Z,96.50
2019-04-07T03:20:49.546Z,96.50
2019-04-07T03:23:26.508Z,96.50
2019-04-07T03:26:00.726Z,96.80
2019-04-07T03:28:31.049Z,96.80
2019-04-07T03:31:02.098Z,96.80
2019-04-07T03:33:36.046Z,96.80
2019-04-07T03:36:06.764Z,96.80
2019-04-07T03:38:52.486Z,96.80
2019-04-07T03:41:23.701Z,96.90
2019-04-07T03:43:54.137Z,97.00
2019-04-07T03:46:25.245Z,97.00
2019-04-07T03:49:02.042Z,97.10
2019-04-07T03:51:39.327Z,97.20
2019-04-07T03:54:28.383Z,97.10
2019-04-07T03:57:16.433Z,97.20
2019-04-07T03:59:59.511Z,97.10
2019-04-07T04:02:29.798Z,97.10
2019-04-07T04:05:03.032Z,97.10
2019-04-07T04:07:42.151Z,97.10
2019-04-07T04:10:15.962Z,97.10
2019-04-07T04:12:46.844Z,97.10
2019-04-07T04:15:26.341Z,97.10
2019-04-07T04:17:55.311Z,97.10
2019-04-07T04:20:24.076Z,97.10
2019-04-07T04:22:52.741Z,97.10
2019-04-07T04:25:21.901Z,97.10
2019-04-07T04:27:50.825Z,97.00
2019-04-07T04:30:19.816Z,97.00
2019-04-07T04:32:48.382Z,97.30
2019-04-07T04:35:17.487Z,97.40
2019-04-07T04:37:50.157Z,97.40
2019-04-07T04:40:16.621Z,97.50
2019-04-07T04:42:45.502Z,97.50
2019-04-07T04:45:15.781Z,97.40
2019-04-07T04:47:44.828Z,97.50
2019-04-07T04:50:14.730Z,97.60
2019-04-07T04:52:43.395Z,97.70
2019-04-07T04:55:13.271Z,97.70
2019-04-07T04:57:42.491Z,97.70
2019-04-07T05:00:12.221Z,97.70
2019-04-07T05:02:41.343Z,97.60
2019-04-07T05:05:10.932Z,97.60
2019-04-07T05:07:50.067Z,97.60
2019-04-07T05:10:10.451Z,97.80
2019-04-07T05:12:39.162Z,97.70
2019-04-07T05:15:09.640Z,97.70
2019-04-07T05:17:39.035Z,97.70
2019-04-07T05:20:08.045Z,97.70
2019-04-07T05:22:36.829Z,97.70
2019-04-07T05:25:07.089Z,97.70
2019-04-07T05:27:35.652Z,97.70
2019-04-07T05:30:07.748Z,97.70
2019-04-07T05:32:36.805Z,97.60
2019-04-07T05:35:08.834Z,97.70
2019-04-07T05:37:37.443Z,97.70
2019-04-07T05:40:06.675Z,97.70
2019-04-07T05:42:35.610Z,97.70
2019-04-07T05:45:06.561Z,97.70
2019-04-07T05:47:35.243Z,98.00
2019-04-07T05:50:05.499Z,97.70
2019-04-07T05:52:39.276Z,97.70
2019-04-07T05:55:06.494Z,97.70
2019-04-07T05:57:35.985Z,97.60
2019-04-07T06:00:07.944Z,97.60
2019-04-07T06:02:37.430Z,97.70
2019-04-07T06:05:07.528Z,97.70
2019-04-07T06:07:37.107Z,97.60
2019-04-07T06:10:07.988Z,97.60
2019-04-07T06:12:39.268Z,97.60
2019-04-07T06:15:07.592Z,97.60
2019-04-07T06:17:36.710Z,97.50
2019-04-07T06:20:12.108Z,97.50
2019-04-07T06:22:38.016Z,97.50
2019-04-07T06:25:09.560Z,97.50
2019-04-07T06:27:38.497Z,97.80
2019-04-07T06:30:09.759Z,97.90
2019-04-07T06:32:39.674Z,97.70
2019-04-07T06:35:12.334Z,98.50
2019-04-07T06:37:39.823Z,98.50
2019-04-07T06:40:09.089Z,98.50
2019-04-07T06:42:37.842Z,98.80
2019-04-07T06:45:10.870Z,98.80
2019-04-07T06:47:42.044Z,98.70
2019-04-07T06:50:28.683Z,98.60
2019-04-07T06:52:58.967Z,98.40
2019-04-07T06:55:30.093Z,98.60
2019-04-07T06:58:01.969Z,98.50
2019-04-07T07:00:35.294Z,98.30
2019-04-07T07:03:21.721Z,98.20
2019-04-07T07:06:08.570Z,98.10
2019-04-07T07:08:56.616Z,98.10
2019-04-07T07:11:40.809Z,97.90
2019-04-07T07:14:08.004Z,98.00
2019-04-07T07:16:46.135Z,98.00
2019-04-07T07:19:16.255Z,97.80
2019-04-07T07:21:46.796Z,97.70
2019-04-07T07:24:18.424Z,97.80
2019-04-07T07:26:46.240Z,97.70
2019-04-07T07:29:16.459Z,97.60
2019-04-07T07:31:45.242Z,97.50
2019-04-07T07:34:14.328Z,97.40
2019-04-07T07:36:42.985Z,97.30
2019-04-07T07:39:12.883Z,97.20
2019-04-07T07:41:42.226Z,97.10
2019-04-07T07:44:10.875Z,96.90
2019-04-07T07:46:39.915Z,96.80
2019-04-07T07:49:08.578Z,96.70
2019-04-07T07:51:38.671Z,96.40
2019-04-07T07:54:07.823Z,96.30
2019-04-07T07:56:36.729Z,96.10
2019-04-07T07:59:06.237Z,95.80
2019-04-07T08:01:34.875Z,95.60
2019-04-07T08:04:03.802Z,95.40
2019-04-07T08:06:32.846Z,95.20
2019-04-07T08:09:12.063Z,94.90
2019-04-07T08:11:33.820Z,94.70
2019-04-07T08:14:02.401Z,94.60
2019-04-07T08:16:31.527Z,94.50
2019-04-07T08:19:00.757Z,94.40
2019-04-07T08:21:30.097Z,94.40
2019-04-07T08:23:59.048Z,94.20
2019-04-07T08:26:27.845Z,94.20
2019-04-07T08:28:56.586Z,94.10
2019-04-07T08:31:25.422Z,94.00
2019-04-07T08:33:54.822Z,93.70
2019-04-07T08:36:23.954Z,93.60
2019-04-07T08:38:55.731Z,93.40
2019-04-07T08:41:23.451Z,93.40
2019-04-07T08:43:55.309Z,93.40
2019-04-07T08:46:22.367Z,93.30
2019-04-07T08:48:54.267Z,93.20
2019-04-07T08:51:23.019Z,93.00
2019-04-07T08:53:51.837Z,93.00
2019-04-07T08:56:24.822Z,92.80
2019-04-07T08:58:52.167Z,92.70
2019-04-07T09:01:21.353Z,92.50
2019-04-07T09:03:50.789Z,92.50
2019-04-07T09:06:20.917Z,92.40
2019-04-07T09:08:50.112Z,92.30
2019-04-07T09:11:22.420Z,92.10
2019-04-07T09:13:52.591Z,92.10
2019-04-07T09:16:29.237Z,92.40
2019-04-07T09:19:03.769Z,91.90
2019-04-07T09:21:50.716Z,92.00
2019-04-07T09:24:38.576Z,91.80
2019-04-07T09:27:22.502Z,91.70
2019-04-07T09:29:53.376Z,91.70
2019-04-07T09:32:26.297Z,91.60
2019-04-07T09:35:08.983Z,91.60
2019-04-07T09:37:53.354Z,91.40
2019-04-07T09:40:42.204Z,91.20
2019-04-07T09:43:31.927Z,91.10
2019-04-07T09:46:10.355Z,91.00
2019-04-07T09:48:40.534Z,90.80
2019-04-07T09:51:17.752Z,90.80
2019-04-07T09:53:50.381Z,90.30
2019-04-07T09:56:20.136Z,90.10
2019-04-07T09:58:56.794Z,89.70
2019-04-07T10:01:33.109Z,89.50
2019-04-07T10:04:18.369Z,88.70
2019-04-07T10:06:54.346Z,87.90
2019-04-07T10:09:41.259Z,86.80
2019-04-07T10:12:20.360Z,85.80
2019-04-07T10:15:06.486Z,85.90
2019-04-07T10:17:55.415Z,85.00
2019-04-07T10:20:42.790Z,85.00
2019-04-07T10:23:23.142Z,85.10
2019-04-07T10:25:53.538Z,84.30
2019-04-07T10:28:26.585Z,82.90
2019-04-07T10:30:56.806Z,83.10
2019-04-07T10:33:27.308Z,83.20
2019-04-07T10:36:14.759Z,83.10
2019-04-07T10:39:02.046Z,83.10
2019-04-07T10:41:50.726Z,82.20
2019-04-07T10:44:40.191Z,81.80
2019-04-07T10:47:29.141Z,81.40
2019-04-07T10:50:06.226Z,81.90
2019-04-07T10:52:46.974Z,81.70
2019-04-07T10:55:22.709Z,81.20
2019-04-07T10:57:58.836Z,81.20
2019-04-07T11:00:48.551Z,81.10
2019-04-07T11:03:29.364Z,79.50
2019-04-07T11:06:00.420Z,79.40
2019-04-07T11:08:30.956Z,79.30
2019-04-07T11:11:01.364Z,77.90
2019-04-07T11:13:44.397Z,77.10
2019-04-07T11:16:27.021Z,78.20
2019-04-07T11:19:17.600Z,78.60
2019-04-07T11:21:51.726Z,77.30
2019-04-07T11:24:22.125Z,77.30
2019-04-07T11:26:55.119Z,77.30
2019-04-07T11:29:41.576Z,77.10
2019-04-07T11:32:28.836Z,77.10
2019-04-07T11:35:11.251Z,76.80
2019-04-07T11:37:48.436Z,76.00
2019-04-07T11:40:42.088Z,75.80
2019-04-07T11:43:09.567Z,75.70
2019-04-07T11:45:58.320Z,76.00
2019-04-07T11:48:38.259Z,76.00
2019-04-07T11:51:26.964Z,75.40
2019-04-07T11:53:59.974Z,75.60
2019-04-07T11:56:43.368Z,74.10
2019-04-07T11:59:16.637Z,73.50
2019-04-07T12:01:49.520Z,73.20
2019-04-07T12:04:21.737Z,72.60
2019-04-07T12:07:00.721Z,72.40
2019-04-07T12:09:40.088Z,71.70
2019-04-07T12:12:25.354Z,71.80
2019-04-07T12:15:02.160Z,71.60
2019-04-07T12:17:33.004Z,71.70
2019-04-07T12:20:19.489Z,70.70
2019-04-07T12:22:52.892Z,71.50
2019-04-07T12:25:23.398Z,70.90
2019-04-07T12:27:56.717Z,70.90
2019-04-07T12:30:33.796Z,69.40
2019-04-07T12:33:07.902Z,69.80
2019-04-07T12:35:54.998Z,69.00
2019-04-07T12:38:43.229Z,69.60
2019-04-07T12:41:16.969Z,69.90
2019-04-07T12:43:48.608Z,68.50
2019-04-07T12:46:21.003Z,67.80
2019-04-07T12:48:51.409Z,67.70
2019-04-07T12:51:22.399Z,67.90
2019-04-07T12:54:02.018Z,66.20
2019-04-07T12:56:34.251Z,64.50
2019-04-07T12:59:21.177Z,64.40
2019-04-07T13:01:54.563Z,63.30
2019-04-07T13:04:25.547Z,63.90
2019-04-07T13:07:17.736Z,64.00
2019-04-07T13:09:53.789Z,62.10
2019-04-07T13:12:27.281Z,59.20
2019-04-07T13:15:10.974Z,59.80
2019-04-07T13:17:42.056Z,59.30
2019-04-07T13:20:18.083Z,58.40
2019-04-07T13:22:53.492Z,58.50
2019-04-07T13:25:24.252Z,57.10
2019-04-07T13:27:55.319Z,54.20
2019-04-07T13:30:28.477Z,54.20
2019-04-07T13:33:16.139Z,54.50
2019-04-07T13:35:59.659Z,53.50
2019-04-07T13:38:32.877Z,52.90
2019-04-07T13:41:04.036Z,52.30
2019-04-07T13:43:51.661Z,52.60
2019-04-07T13:46:36.112Z,52.80
2019-04-07T13:49:09.705Z,51.70
2019-04-07T13:51:42.701Z,50.50
2019-04-07T13:54:32.163Z,50.10
2019-04-07T13:57:06.641Z,49.90
2019-04-07T13:59:42.683Z,49.90
2019-04-07T14:02:14.390Z,50.70
2019-04-07T14:04:44.606Z,50.20
2019-04-07T14:07:27.290Z,50.30
2019-04-07T14:10:05.141Z,49.40
2019-04-07T14:12:54.358Z,49.40
2019-04-07T14:15:40.980Z,49.50
2019-04-07T14:18:14.373Z,49.80
2019-04-07T14:20:54.029Z,50.20
2019-04-07T14:23:25.139Z,49.90
2019-04-07T14:26:07.865Z,49.50
2019-04-07T14:28:47.611Z,50.10
2019-04-07T14:31:34.747Z,50.20
2019-04-07T14:34:21.801Z,50.10
2019-04-07T14:37:05.344Z,50.00
2019-04-07T14:39:39.012Z,49.80
2019-04-07T14:42:15.219Z,48.70
2019-04-07T14:44:52.254Z,49.00
2019-04-07T14:47:28.449Z,48.80
2019-04-07T14:49:58.680Z,48.20
2019-04-07T14:52:31.906Z,48.00
2019-04-07T14:55:05.057Z,48.10
2019-04-07T14:57:41.541Z,48.20
2019-04-07T15:00:12.656Z,47.70
2019-04-07T15:02:41.228Z,48.00
2019-04-07T15:05:12.548Z,47.80
2019-04-07T15:07:42.835Z,46.80
2019-04-07T15:10:25.396Z,47.20
2019-04-07T15:12:56.792Z,47.40
2019-04-07T15:15:25.527Z,47.80
2019-04-07T15:17:54.377Z,48.10
2019-04-07T15:20:23.885Z,47.40
2019-04-07T15:22:52.862Z,47.50
2019-04-07T15:25:22.615Z,47.70
2019-04-07T15:27:55.259Z,47.50
2019-04-07T15:30:22.303Z,47.80
2019-04-07T15:32:51.584Z,47.90
2019-04-07T15:35:21.269Z,47.50
2019-04-07T15:37:51.864Z,47.30
2019-04-07T15:40:20.452Z,47.30
2019-04-07T15:42:51.065Z,46.40
2019-04-07T15:45:20.455Z,47.00
2019-04-07T15:47:52.246Z,47.60
2019-04-07T15:50:20.109Z,48.20
2019-04-07T15:52:48.708Z,48.80
2019-04-07T15:55:17.736Z,50.00
2019-04-07T15:57:46.254Z,51.40
2019-04-07T16:00:16.544Z,52.60
2019-04-07T16:02:46.026Z,53.90
2019-04-07T16:05:15.853Z,55.30
2019-04-07T16:07:44.920Z,56.70
2019-04-07T16:10:18.638Z,58.30
2019-04-07T16:12:50.753Z,59.70
2019-04-07T16:15:18.110Z,61.20
2019-04-07T16:17:47.595Z,62.90
2019-04-07T16:20:22.951Z,63.90
2019-04-07T16:22:49.233Z,65.30
2019-04-07T16:25:17.763Z,66.30
2019-04-07T16:27:47.437Z,67.50
2019-04-07T16:30:19.020Z,66.90
2019-04-07T16:32:47.015Z,66.20
2019-04-07T16:35:16.621Z,65.20
2019-04-07T16:37:45.770Z,64.60
2019-04-07T16:40:15.841Z,63.90
2019-04-07T16:43:00.225Z,64.00
2019-04-07T16:45:17.837Z,63.50
2019-04-07T16:47:45.685Z,64.40
2019-04-07T16:50:18.092Z,64.70
2019-04-07T16:52:45.125Z,65.80
2019-04-07T16:55:32.705Z,67.00
2019-04-07T16:58:02.342Z,68.50
2019-04-07T17:00:32.392Z,70.10
2019-04-07T17:03:01.390Z,71.70
2019-04-07T17:05:30.349Z,73.10
2019-04-07T17:07:59.483Z,74.90
2019-04-07T17:10:30.963Z,78.50
2019-04-07T17:13:00.850Z,81.80
2019-04-07T17:15:29.625Z,82.70
2019-04-07T17:17:58.825Z,84.40
2019-04-07T17:20:28.417Z,84.20
2019-04-07T17:22:58.269Z,84.70
2019-04-07T17:25:27.009Z,85.60
2019-04-07T17:27:58.419Z,86.80
2019-04-07T17:30:27.048Z,88.40
2019-04-07T17:32:56.581Z,88.50
2019-04-07T17:35:25.300Z,88.80
2019-04-07T17:37:59.797Z,89.60
2019-04-07T17:40:26.958Z,89.80
2019-04-07T17:42:57.211Z,90.00
2019-04-07T17:45:43.987Z,90.20
2019-04-07T17:48:37.032Z,90.40
2019-04-07T17:51:10.603Z,90.50
2019-04-07T17:53:46.591Z,90.60
2019-04-07T17:56:32.388Z,90.80
2019-04-07T17:59:02.637Z,91.00
2019-04-07T18:01:52.408Z,91.10
2019-04-07T18:04:25.057Z,91.00
2019-04-07T18:07:03.613Z,91.30
2019-04-07T18:09:33.544Z,91.40
2019-04-07T18:12:23.891Z,91.50
2019-04-07T18:15:10.662Z,91.50
2019-04-07T18:17:58.746Z,91.60
2019-04-07T18:20:44.468Z,91.60
2019-04-07T18:23:15.753Z,91.80
2019-04-07T18:25:50.872Z,91.90
2019-04-07T18:28:30.563Z,91.90
2019-04-07T18:31:04.342Z,92.00
2019-04-07T18:33:39.228Z,92.10
2019-04-07T18:36:09.466Z,92.20
2019-04-07T18:38:54.981Z,92.20
2019-04-07T18:41:41.566Z,92.30
2019-04-07T18:44:28.370Z,92.30
2019-04-07T18:47:15.137Z,92.50
2019-04-07T18:49:48.522Z,92.70
2019-04-07T18:52:35.774Z,92.80
2019-04-07T18:55:09.778Z,93.00
2019-04-07T18:57:41.642Z,93.10
2019-04-07T19:00:24.588Z,93.30
2019-04-07T19:03:04.503Z,93.40
2019-04-07T19:05:39.014Z,93.90
2019-04-07T19:08:12.004Z,93.90
2019-04-07T19:10:46.254Z,93.90
2019-04-07T19:13:18.563Z,94.20
2019-04-07T19:16:04.855Z,94.20
2019-04-07T19:18:35.082Z,94.40
2019-04-07T19:21:11.839Z,94.70
2019-04-07T19:23:45.993Z,94.90
2019-04-07T19:26:32.402Z,95.20
2019-04-07T19:29:09.253Z,95.40
2019-04-07T19:31:43.810Z,95.30
2019-04-07T19:34:30.086Z,95.60
2019-04-07T19:37:01.811Z,95.60
2019-04-07T19:39:41.354Z,95.70
2019-04-07T19:42:12.361Z,95.70
2019-04-07T19:44:59.529Z,95.70
2019-04-07T19:47:39.581Z,95.70
2019-04-07T19:50:27.033Z,95.70
2019-04-07T19:52:57.251Z,95.80
2019-04-07T19:55:28.306Z,95.90
2019-04-07T19:58:15.790Z,96.10
2019-04-07T20:00:52.857Z,96.00
2019-04-07T20:03:24.267Z,96.00
2019-04-07T20:06:00.717Z,96.10
2019-04-07T20:08:47.319Z,96.20
2019-04-07T20:11:32.518Z,96.10
2019-04-07T20:14:02.935Z,96.20
2019-04-07T20:16:43.383Z,96.30
2019-04-07T20:19:28.943Z,96.30
2019-04-07T20:22:01.121Z,96.30
2019-04-07T20:24:34.612Z,96.50
2019-04-07T20:27:22.645Z,96.40
2019-04-07T20:29:58.384Z,96.60
2019-04-07T20:32:41.277Z,96.60
2019-04-07T20:35:15.622Z,97.20
2019-04-07T20:37:46.673Z,96.70
2019-04-07T20:40:37.114Z,96.80
2019-04-07T20:43:05.531Z,96.90
2019-04-07T20:45:51.820Z,97.10
2019-04-07T20:48:22.077Z,97.00
2019-04-07T20:50:56.160Z,97.00
2019-04-07T20:53:35.176Z,97.00
2019-04-07T20:56:09.344Z,97.10
2019-04-07T20:58:56.697Z,97.40
2019-04-07T21:01:38.686Z,97.20
2019-04-07T21:04:14.949Z,97.20
2019-04-07T21:06:55.140Z,97.20
2019-04-07T21:09:43.883Z,97.30
2019-04-07T21:12:17.333Z,97.20
2019-04-07T21:14:53.547Z,97.80
2019-04-07T21:17:32.803Z,97.60
2019-04-07T21:20:05.377Z,97.70
2019-04-07T21:22:42.972Z,97.80
2019-04-07T21:25:23.905Z,97.70
2019-04-07T21:28:00.120Z,97.60
2019-04-07T21:30:31.143Z,97.70
2019-04-07T21:33:07.790Z,97.70
2019-04-07T21:35:53.384Z,97.60
2019-04-07T21:38:39.112Z,97.50
2019-04-07T21:41:12.221Z,97.60
2019-04-07T21:43:42.442Z,97.70
2019-04-07T21:46:15.415Z,97.60
2019-04-07T21:48:51.233Z,97.50
2019-04-07T21:51:31.040Z,97.60
2019-04-07T21:54:25.695Z,97.60
2019-04-07T21:57:04.980Z,97.70
2019-04-07T21:59:35.471Z,97.80
2019-04-07T22:04:56.590Z,97.60
2019-04-07T22:07:38.139Z,97.90
2019-04-07T22:10:09.520Z,97.90
2019-04-07T22:12:38.110Z,97.90
2019-04-07T22:15:11.720Z,98.00
2019-04-07T22:17:39.394Z,98.20
2019-04-07T22:20:10.492Z,98.50
2019-04-07T22:22:39.244Z,98.40
2019-04-07T22:25:09.679Z,98.40
2019-04-07T22:27:38.967Z,98.40
2019-04-07T22:30:11.207Z,98.40
2019-04-07T22:32:40.668Z,98.70
2019-04-07T22:35:10.539Z,98.50
2019-04-07T22:37:39.875Z,98.50
2019-04-07T22:40:17.604Z,98.70
2019-04-07T22:42:48.508Z,98.60
2019-04-07T22:45:17.122Z,99.10
2019-04-07T22:47:46.664Z,98.70
2019-04-07T22:50:15.481Z,98.70
2019-04-07T22:52:47.337Z,98.70
2019-04-07T22:55:14.534Z,98.70
2019-04-07T22:57:44.104Z,98.70
2019-04-07T23:00:15.294Z,98.60
2019-04-07T23:02:44.455Z,98.70
2019-04-07T23:05:13.176Z,98.70
2019-04-07T23:07:41.863Z,98.70
2019-04-07T23:10:11.220Z,98.70
2019-04-07T23:12:40.959Z,98.40
2019-04-07T23:15:09.922Z,98.70
2019-04-07T23:17:38.469Z,98.70
2019-04-07T23:20:07.233Z,98.70
2019-04-07T23:22:36.161Z,98.60
2019-04-07T23:25:06.343Z,98.70
2019-04-07T23:27:35.958Z,98.70
2019-04-07T23:30:08.662Z,98.70
2019-04-07T23:32:37.388Z,98.70
2019-04-07T23:35:08.293Z,98.80
2019-04-07T23:37:37.022Z,98.80
2019-04-07T23:40:06.816Z,98.70
2019-04-07T23:42:36.166Z,98.70
2019-04-07T23:45:06.927Z,98.80
2019-04-07T23:47:36.612Z,98.90
2019-04-07T23:50:07.076Z,98.80
2019-04-07T23:52:35.713Z,98.70
2019-04-07T23:55:04.502Z,98.80
2019-04-07T23:57:33.091Z,98.80
